Dauntless Aviation
Airports North America United States Wyoming
KGEY
GEY
GEY

SOUTH BIG HORN COUNTY AIRPORT

GREYBULL, WY, USA

Airport Info
Suggest Updated Information for this Airport

Location

Latitude / Longitude: 44°31'4"N / 108°4'58"W
  44°31.0767'N / 108°4.98'W
  44.5179 / -108.0830
Elevation: 3941.8 ft. (surveyed)
Variation: 10E (2020)
From city: 02 miles NW of GREYBULL, WY

Operations

Facility use: Open to the public
Sectional chart: BILLINGS
Control tower: no
Boundary ARTCC: SALT LAKE CITY
Responsible ARTCC: SALT LAKE CITY
FSS: CASPER [1-800-WX-BRIEF]
NOTAMs facility: GEY (NOTAM-D service available)
Segmented circle: yes
Lights: SEE RMK
Beacon: CLEAR-GREEN (LIGHTED LAND AIRPORT)
Landing fee: no

Communications

CTAF: 122.900

Nearby radio navigation aids

VOR radial/distance VOR name Freq Var
RLY 350oT/33.7 WORLAND VOR/DME 114.80 13E
COD 99oT/38.2 CODY VOR/DME 111.80 14E
 
NDB name Hdg/Dist Freq Var ID
GREYBULL at field 275 14E GEY
COWLEY 147oT/28.3 257 14E HCY
POWELL 125oT/36.6 344 15E POY

Services

Fuel available: 100LLA
Airframe service: MAJOR
Powerplant service: MAJOR
Bottled oxygen: NONE
Bulk oxygen: HIGH

Runway Information

Runway 08/26

Dimensions: 3953 x 75 ft.
Surface: ASPHALT OR BITUMINOUS CONCRETE,GOOD CONDITION,NO SPECIAL SURFACE TREATMENT
 
Runway 08
Runway 26
Latitude: 44-30-48.3073N 44-30-50.7508N
Longitude: 108-05-52.3672W 108-04-57.9357W
Elevation: 3941.8 ft. 3919.1 ft.
Runway true heading: 087 267
Markings: nonprecision instrument, in good condition nonprecision instrument, in good condition
 

Runway 16/34

Dimensions: 7003 x 150 ft.
Surface: ASPHALT OR BITUMINOUS CONCRETE,GOOD CONDITION,NO SPECIAL SURFACE TREATMENT
Edge lights: MEDIUM
 
Runway 16
Runway 34
Latitude: 44-31-47.1563N 44-30-39.1823N
Longitude: 108-04-52.8009W 108-04-35.1273W
Elevation: 3904.9 ft. 3916.1 ft.
Runway true heading: 169 349
Markings: nonprecision instrument, in good condition nonprecision instrument, in good condition
Visual slope indicator: 4-LGT PAPI ON LEFT SIDE OF RUNWAY (3.00 degrees glide path) 4-LGT PAPI ON LEFT SIDE OF RUNWAY (3.00 degrees glide path)
Runway end identifier lights: yes yes
 

Operational Statistics

Annual operations: 3990
Air taxi: 290
Local: 2850
Itinerant: 800
Military: 50

Additional Remarks

  • TERRAIN 1066 FT ABV ARPT ELEV 4-5 MILES NORTH & NE OF ARPT.
  • ANTELOPE ON & INVOF RY.
  • COLD TEMPERATURE RESTRICTED AIRPORT. ALTITUDE CORRECTION REQUIRED AT OR BELOW -33C.
  • FOR CD CTC SALT LAKE ARTCC AT 801-320-2568.

Instrument Procedures

Effective Mar 25, 2021 to Apr 21, 2021

IAPs (Instrument Approach Procedures)

   RNAV (GPS) RWY 08 (PDF)
   RNAV (GPS) RWY 34 (PDF)
   NDB RWY 34 (PDF)
   TAKEOFF MINIMUMS (PDF)
   ALTERNATE MINIMUMS (PDF)

Departure Procedures

   PECKK TWO (RNAV) (PDF)
 
    Legends & General Information
    Airport Diagram Legend
Topographic chart at:
Satellite photo at:
Airport distance calculator
From:
Weather Reports

METAR

KGEY

KGEY 170553Z AUTO 13005KT 10SM BKN075 OVC100 01/M04 A3029 RMK AO2 SLP281 T00111039 10094 20011 51008
KU68
28.6nm NW
KU68 170555Z AUTO 26006KT 10SM SCT070 BKN100 00/M03 A3030 RMK AO2
KWRL
33.6nm SE
KWRL 170553Z AUTO 19005KT 10SM CLR M02/M03 A3029 RMK AO2 SLP288 T10171028 10044 21017 51005
KPOY
37.1nm W
KPOY 170555Z AUTO 28005KT 10SM BKN090 M01/M06 A3027 RMK AO2
KCOD
40.0nm W
KCOD 170556Z AUTO 25006KT 10SM SCT070 BKN090 01/M05 A3031 RMK AO2 SLP293 60000 T00061050 10056 21006 58003 FZRANO

TAF

KWRL
33.6nm SE
KWRL 170524Z 1706/1806 VRB05KT P6SM VCFG FEW005 SCT090 FM171600 31007KT P6SM SKC FM180200 15007KT P6SM SCT100
KCOD
40.0nm W
KCOD 170524Z 1706/1806 VRB05KT P6SM BKN080 FM171800 03007KT P6SM SKC FM180000 22006KT P6SM SCT100
Safelog

 

Dauntless Aviation

© 2007-2021 Dauntless Aviation, all rights reserved
Information provided via PilotNav comes from a variety of official and unofficial data sources. As errors are possible, do not use PilotNav for primary flight planning purposes. Verify any information that you receive via PilotNav with current and canonical charts and other official documents. The material in this database is subject to database copyrights held by Dauntless Aviation and may not be copied without the express permission of Dauntless Aviation - licenses for use of part of all of this data are available for purchase; enquire via the Dauntless Aviation helpdesk. A number of mechanisms and markers exist in the database to protect against and identify infringement / copyright. Automated queries against this website are strictly prohibited, and all activity is logged and analyzed.